Time;durP1;ratioP1;P1;durP2;ratioP2;P2;SDS_P1;SDS_P2;PMS_P1;PMS_P2;Temp;Humidity;BMP_temperature;BMP_pressure;BME280_temperature;BME280_humidity;BME280_pressure;Samples;Min_cycle;Max_cycle;Signal;HPM_P1;HPM_P2
2022/05/12 00:00:06;;;;;;;9.68;8.30;;;;;;;16.67;77.80;98950.84;5115532;28;20028;-84
2022/05/12 00:02:32;;;;;;;9.68;8.10;;;;;;;16.76;77.11;98965.06;5114398;28;20123;-84
2022/05/12 00:04:59;;;;;;;11.18;8.15;;;;;;;16.75;77.29;98968.66;5114041;28;20448;-84
2022/05/12 00:07:25;;;;;;;9.25;7.75;;;;;;;16.73;76.24;98957.41;5115439;28;20024;-84
2022/05/12 00:09:51;;;;;;;8.52;7.60;;;;;;;16.80;76.75;98961.22;5115654;28;20024;-84
2022/05/12 00:12:17;;;;;;;8.98;8.05;;;;;;;16.73;76.56;98954.78;5114090;28;20028;-84
2022/05/12 00:14:42;;;;;;;10.93;7.32;;;;;;;16.68;75.91;98947.25;5115362;28;20388;-84
2022/05/12 00:17:08;;;;;;;10.57;7.68;;;;;;;16.72;74.91;98951.31;5115151;27;20035;-84
2022/05/12 00:19:33;;;;;;;9.63;7.43;;;;;;;16.79;75.39;98952.50;5113980;28;20040;-84
2022/05/12 00:21:59;;;;;;;7.95;7.13;;;;;;;16.75;74.08;98942.38;5113673;28;20028;-84
2022/05/12 00:24:24;;;;;;;11.13;7.18;;;;;;;16.74;73.74;98936.28;5114189;28;20039;-84
2022/05/12 00:26:50;;;;;;;8.10;6.93;;;;;;;16.82;73.70;98947.00;5114079;28;20032;-84
2022/05/12 00:29:15;;;;;;;9.55;6.75;;;;;;;16.85;73.47;98933.56;5115048;28;20472;-84
2022/05/12 00:31:43;;;;;;;6.60;5.95;;;;;;;16.90;73.16;98941.94;5115113;28;20031;-84
2022/05/12 00:34:09;;;;;;;9.73;7.28;;;;;;;16.85;72.82;98935.38;5113381;28;20024;-84
2022/05/12 00:36:35;;;;;;;7.63;6.82;;;;;;;16.86;72.57;98937.06;5114939;28;20617;-84
2022/05/12 00:39:02;;;;;;;6.68;5.97;;;;;;;16.95;72.08;98939.75;5114945;28;20043;-84
2022/05/12 00:41:27;;;;;;;7.38;6.03;;;;;;;16.93;71.93;98936.38;5114947;28;20088;-84
2022/05/12 00:43:56;;;;;;;7.07;6.15;;;;;;;16.92;71.69;98932.09;5115155;28;20465;-84
2022/05/12 00:46:27;;;;;;;8.73;6.60;;;;;;;16.86;71.62;98930.00;5113552;28;20434;-84
2022/05/12 00:48:57;;;;;;;8.90;6.75;;;;;;;16.92;70.77;98937.34;5114453;28;20399;-84
2022/05/12 00:51:37;;;;;;;7.82;6.13;;;;;;;16.84;71.39;98923.19;5114905;28;20023;-84
2022/05/12 00:54:08;;;;;;;6.28;5.68;;;;;;;16.90;71.48;98935.84;5114453;28;20476;-84
2022/05/12 00:56:35;;;;;;;8.15;6.38;;;;;;;16.88;71.57;98935.13;5114622;28;20467;-84
2022/05/12 00:59:06;;;;;;;6.90;6.20;;;;;;;16.88;71.36;98938.56;5114324;28;20027;-84
2022/05/12 01:01:31;;;;;;;8.52;6.38;;;;;;;16.84;71.25;98934.53;5114377;28;20023;-84
2022/05/12 01:03:59;;;;;;;7.38;5.85;;;;;;;16.82;71.25;98935.66;5114637;28;20034;-84
2022/05/12 01:06:25;;;;;;;8.13;6.72;;;;;;;16.76;71.46;98928.25;5114401;28;20080;-84
2022/05/12 01:08:50;;;;;;;6.65;6.05;;;;;;;16.80;71.63;98934.91;5114504;28;20028;-84
2022/05/12 01:11:18;;;;;;;8.30;6.32;;;;;;;16.73;72.06;98931.13;5114082;28;20067;-84
2022/05/12 01:13:50;;;;;;;7.10;6.03;;;;;;;16.66;72.37;98933.41;5114258;27;20605;-84
2022/05/12 01:16:50;;;;;;;7.80;6.45;;;;;;;16.65;72.27;98937.00;5114156;28;20089;-84
2022/05/12 01:19:22;;;;;;;6.53;5.93;;;;;;;16.62;72.66;98935.47;5114300;28;20407;-84
2022/05/12 01:21:49;;;;;;;7.22;5.97;;;;;;;16.51;72.73;98922.34;5114142;28;20488;-84
2022/05/12 01:24:16;;;;;;;7.07;6.32;;;;;;;16.54;72.95;98945.78;5112436;28;20023;-84
2022/05/12 01:26:42;;;;;;;8.27;5.82;;;;;;;16.48;72.66;98940.22;5112876;28;20023;-84
2022/05/12 01:29:08;;;;;;;9.07;6.20;;;;;;;16.48;72.84;98946.28;5113903;28;20042;-84
2022/05/12 01:31:34;;;;;;;6.75;6.03;;;;;;;16.42;73.28;98934.47;5113945;28;20019;-83
2022/05/12 01:34:01;;;;;;;6.38;5.78;;;;;;;16.45;73.44;98946.53;5113607;28;20412;-84
2022/05/12 01:36:26;;;;;;;6.15;5.55;;;;;;;16.30;72.97;98921.50;5113961;28;20076;-84
2022/05/12 01:38:52;;;;;;;5.93;5.40;;;;;;;16.40;73.41;98939.03;5113863;28;20398;-84
2022/05/12 01:41:18;;;;;;;7.85;6.18;;;;;;;16.35;73.49;98921.94;5113678;28;20352;-84
2022/05/12 01:43:44;;;;;;;9.15;5.95;;;;;;;16.33;73.84;98924.72;5112552;28;20420;-84
2022/05/12 01:46:10;;;;;;;7.35;6.00;;;;;;;16.38;73.44;98930.44;5112273;28;20055;-84
2022/05/12 01:48:36;;;;;;;7.03;6.30;;;;;;;16.32;73.52;98927.47;5113407;28;20176;-83
2022/05/12 01:51:02;;;;;;;7.00;6.25;;;;;;;16.26;73.36;98923.53;5113637;28;20460;-84
2022/05/12 01:53:29;;;;;;;8.10;6.40;;;;;;;16.20;73.81;98914.38;5113388;28;20112;-84
2022/05/12 01:55:54;;;;;;;8.85;5.80;;;;;;;16.14;74.97;98908.81;5111986;28;20053;-84
2022/05/12 01:58:21;;;;;;;6.65;5.97;;;;;;;16.06;75.52;98898.09;5090188;28;20071;-84
2022/05/12 02:00:46;;;;;;;7.68;6.63;;;;;;;16.10;75.16;98917.88;5090463;28;20059;-84
2022/05/12 02:03:12;;;;;;;7.38;6.40;;;;;;;16.01;75.01;98902.84;5073140;28;20401;-84
2022/05/12 02:05:39;;;;;;;7.28;5.95;;;;;;;16.04;75.70;98921.00;5090407;28;20077;-84
2022/05/12 02:08:06;;;;;;;9.88;6.18;;;;;;;15.99;76.05;98924.00;5090112;28;20147;-84
2022/05/12 02:10:38;;;;;;;6.75;6.10;;;;;;;16.05;76.38;98935.78;5073325;28;20080;-84
2022/05/12 02:13:04;;;;;;;8.60;6.05;;;;;;;15.94;76.84;98920.91;5089998;28;20032;-84
2022/05/12 02:15:30;;;;;;;6.82;6.13;;;;;;;15.98;76.29;98916.25;5090198;28;20102;-84
2022/05/12 02:17:56;;;;;;;8.05;6.03;;;;;;;15.98;76.77;98930.22;5073199;28;20044;-84
2022/05/12 02:20:22;;;;;;;9.43;6.07;;;;;;;15.95;76.48;98923.41;5089943;28;20074;-84
2022/05/12 02:22:49;;;;;;;10.82;7.15;;;;;;;15.93;77.20;98920.09;5072942;28;20032;-84
2022/05/12 02:25:15;;;;;;;8.48;7.10;;;;;;;15.95;76.71;98917.31;5090139;28;20380;-84
2022/05/12 02:27:42;;;;;;;8.43;6.35;;;;;;;15.96;77.36;98921.59;5073017;28;20110;-84
2022/05/12 02:30:10;;;;;;;7.18;6.18;;;;;;;15.96;77.94;98924.22;5104567;28;20369;-84
2022/05/12 02:32:35;;;;;;;6.30;5.70;;;;;;;15.96;77.62;98916.34;5111385;28;20110;-84
2022/05/12 02:35:00;;;;;;;6.30;5.70;;;;;;;15.94;77.20;98918.28;5112660;28;20026;-84
2022/05/12 02:37:26;;;;;;;10.00;6.20;;;;;;;15.97;77.08;98915.41;5112231;28;20031;-84
2022/05/12 02:39:51;;;;;;;6.53;5.90;;;;;;;15.92;76.93;98915.75;5112802;28;20034;-84
2022/05/12 02:42:17;;;;;;;6.72;5.53;;;;;;;15.94;77.62;98923.53;5112461;28;20027;-84
2022/05/12 02:44:42;;;;;;;8.50;5.90;;;;;;;15.91;77.71;98924.59;5111230;28;20628;-84
2022/05/12 02:47:08;;;;;;;9.52;5.85;;;;;;;15.90;77.77;98924.75;5112243;28;20028;-84
2022/05/12 02:49:35;;;;;;;8.50;5.88;;;;;;;15.93;77.39;98924.50;5111754;28;20046;-84
2022/05/12 02:52:00;;;;;;;7.35;5.80;;;;;;;15.95;77.44;98919.94;5112416;28;20092;-84
2022/05/12 02:54:26;;;;;;;11.57;6.07;;;;;;;15.96;77.18;98927.69;5069053;28;20041;-84
2022/05/12 02:56:54;;;;;;;6.90;5.45;;;;;;;15.99;77.16;98925.78;5069573;28;20064;-84
2022/05/12 02:59:20;;;;;;;8.57;5.53;;;;;;;16.00;77.17;98925.66;5069221;28;20493;-84
2022/05/12 03:01:45;;;;;;;8.63;5.60;;;;;;;16.00;76.90;98922.19;5069660;28;20202;-84
2022/05/12 03:04:10;;;;;;;6.32;5.72;;;;;;;15.96;76.89;98913.72;5069157;28;20036;-84
2022/05/12 03:06:37;;;;;;;6.15;5.55;;;;;;;16.05;76.39;98925.28;5069330;28;20495;-84
2022/05/12 03:09:03;;;;;;;6.40;5.45;;;;;;;16.07;76.25;98918.13;5069320;28;20051;-84
2022/05/12 03:11:28;;;;;;;7.47;5.10;;;;;;;16.14;76.00;98929.81;5069058;28;20032;-84
2022/05/12 03:13:54;;;;;;;6.90;5.45;;;;;;;16.25;75.38;98932.38;5069285;28;20437;-83
2022/05/12 03:16:20;;;;;;;7.53;5.35;;;;;;;16.19;75.19;98904.84;5069053;28;20089;-84
2022/05/12 03:18:51;;;;;;;6.32;4.97;;;;;;;16.33;74.93;98929.97;5069101;28;20047;-84
2022/05/12 03:21:17;;;;;;;6.57;4.82;;;;;;;16.43;74.59;98928.28;5068938;28;20033;-84
2022/05/12 03:23:43;;;;;;;5.68;5.10;;;;;;;16.49;74.11;98926.94;5069189;28;20028;-83
2022/05/12 03:26:10;;;;;;;6.90;5.10;;;;;;;16.56;73.78;98922.84;5102397;28;20047;-84
2022/05/12 03:28:37;;;;;;;5.78;5.18;;;;;;;16.60;73.48;98920.75;5112050;28;20469;-84
2022/05/12 03:31:02;;;;;;;7.20;5.50;;;;;;;16.69;73.20;98926.13;5110689;28;20059;-84
2022/05/12 03:33:28;;;;;;;5.88;5.28;;;;;;;16.75;72.79;98922.16;5111754;28;20112;-84
2022/05/12 03:35:53;;;;;;;5.68;5.13;;;;;;;16.80;72.60;98912.09;5111857;28;20027;-84
2022/05/12 03:38:19;;;;;;;4.90;4.43;;;;;;;16.87;72.27;98910.63;5111906;28;20039;-83
2022/05/12 03:40:45;;;;;;;5.82;4.82;;;;;;;16.87;71.85;98912.41;5111862;28;20026;-84
2022/05/12 03:44:46;;;;;;;6.00;4.70;;;;;;;16.95;71.77;98912.59;5111887;28;20110;-84
2022/05/12 03:45:57;;;;;;;5.50;4.43;;;;;;;17.02;71.51;98926.88;5111816;28;20100;-84
2022/05/12 03:48:23;;;;;;;6.18;5.07;;;;;;;17.05;71.02;98917.91;5111563;28;20075;-83
2022/05/12 03:50:48;;;;;;;9.23;5.10;;;;;;;17.07;71.14;98913.38;5110707;28;20456;-83
2022/05/12 03:53:14;;;;;;;6.18;4.70;;;;;;;17.11;70.55;98901.63;5111578;28;20024;-84
2022/05/12 03:55:39;;;;;;;6.18;5.13;;;;;;;17.25;70.24;98908.31;5111814;28;20020;-84
2022/05/12 03:58:05;;;;;;;5.75;4.65;;;;;;;17.49;69.84;98918.50;5111303;28;20055;-84
2022/05/12 04:00:31;;;;;;;6.15;4.90;;;;;;;17.71;68.96;98918.31;5112651;28;20050;-84
2022/05/12 04:02:57;;;;;;;6.63;4.93;;;;;;;18.02;68.15;98910.38;5115480;28;20027;-84
2022/05/12 04:05:22;;;;;;;6.30;4.75;;;;;;;18.47;67.03;98912.47;5115490;28;20699;-83
2022/05/12 04:07:49;;;;;;;6.13;4.68;;;;;;;19.00;65.38;98928.66;5115611;28;20031;-84
2022/05/12 04:10:15;;;;;;;7.47;5.30;;;;;;;19.61;62.50;98919.44;5115306;28;20019;-84
2022/05/12 04:12:41;;;;;;;5.43;4.90;;;;;;;20.35;60.62;98913.13;5115465;28;20110;-83
2022/05/12 04:15:08;;;;;;;6.43;4.97;;;;;;;21.32;57.57;98936.91;5115285;28;20527;-83
2022/05/12 04:17:34;;;;;;;5.97;4.90;;;;;;;21.87;53.74;98914.44;5115483;28;20357;-84
2022/05/12 04:20:05;;;;;;;5.20;4.65;;;;;;;21.89;52.88;98926.50;5115308;28;20030;-84
2022/05/12 04:22:30;;;;;;;6.13;5.00;;;;;;;21.73;52.62;98923.81;5115019;28;20030;-83
2022/05/12 04:24:56;;;;;;;5.93;4.53;;;;;;;21.32;53.70;98938.69;5115289;28;20110;-84
2022/05/12 04:27:21;;;;;;;7.68;4.65;;;;;;;20.95;54.66;98942.41;5114982;28;20032;-84
2022/05/12 04:29:47;;;;;;;5.97;4.75;;;;;;;20.58;56.19;98943.44;5115041;28;20465;-84
2022/05/12 04:32:12;;;;;;;5.93;4.90;;;;;;;20.24;57.24;98927.41;5113723;28;20035;-84
2022/05/12 04:37:31;;;;;;;8.23;5.18;;;;;;;20.22;58.50;98942.56;5115020;28;20545;-84
2022/05/12 04:40:13;;;;;;;6.43;4.72;;;;;;;20.99;56.96;98958.84;5113522;28;20063;-84
2022/05/12 04:42:39;;;;;;;5.40;4.63;;;;;;;21.98;53.50;98951.22;5114898;28;20053;-80
2022/05/12 04:45:07;;;;;;;6.47;4.50;;;;;;;22.74;50.77;98952.03;5113599;28;20110;-80
2022/05/12 04:47:34;;;;;;;6.95;4.47;;;;;;;22.86;50.13;98956.84;5114552;27;20048;-80
2022/05/12 04:50:00;;;;;;;7.30;4.95;;;;;;;22.79;49.57;98965.63;5114820;28;20024;-80
2022/05/12 04:52:26;;;;;;;8.18;4.60;;;;;;;22.75;49.84;98959.00;5114500;28;20184;-80
2022/05/12 04:54:54;;;;;;;9.27;4.88;;;;;;;22.61;49.86;98963.97;5091430;28;20077;-80
2022/05/12 04:57:20;;;;;;;8.73;4.85;;;;;;;22.28;50.45;98955.13;5091615;28;20545;-80
2022/05/12 04:59:46;;;;;;;4.68;4.20;;;;;;;22.06;51.30;98969.81;5074716;28;20119;-80
2022/05/12 05:02:11;;;;;;;6.05;4.57;;;;;;;21.83;51.79;98960.81;5091520;28;20088;-80
2022/05/12 05:04:37;;;;;;;7.10;4.75;;;;;;;21.82;52.12;98985.63;5091644;28;20111;-80
2022/05/12 05:07:02;;;;;;;5.60;4.30;;;;;;;21.68;51.65;98971.16;5074619;28;20031;-80
2022/05/12 05:09:28;;;;;;;6.55;4.57;;;;;;;21.67;51.71;98985.41;5091181;28;20466;-80
2022/05/12 05:11:54;;;;;;;7.07;4.55;;;;;;;21.62;51.91;98996.50;5073687;28;20512;-80
2022/05/12 05:14:20;;;;;;;6.32;4.60;;;;;;;21.58;52.29;98976.59;5074077;28;20032;-80
2022/05/12 05:16:46;;;;;;;9.40;4.85;;;;;;;21.71;52.49;98980.63;5091474;28;20032;-80
2022/05/12 05:19:12;;;;;;;5.40;4.38;;;;;;;21.79;51.92;98986.81;5091202;28;20484;-80
2022/05/12 05:21:37;;;;;;;4.80;4.30;;;;;;;21.73;51.93;98990.06;5091348;28;20042;-80
2022/05/12 05:24:03;;;;;;;8.98;4.47;;;;;;;21.88;51.74;98988.50;5091283;28;20032;-80
2022/05/12 05:26:29;;;;;;;8.43;4.30;;;;;;;24.09;47.24;98977.81;5108283;28;20516;-80
2022/05/12 05:28:54;;;;;;;6.85;3.92;;;;;;;26.12;41.27;98999.19;5114362;28;20023;-80
2022/05/12 05:31:20;;;;;;;11.85;3.90;;;;;;;26.58;39.31;98988.19;5112470;28;20466;-80
2022/05/12 05:33:45;;;;;;;5.05;4.20;;;;;;;26.46;39.12;99002.22;5113812;28;20019;-80
2022/05/12 05:36:10;;;;;;;7.25;3.95;;;;;;;25.98;39.88;99008.03;5113744;28;20077;-80
2022/05/12 05:38:36;;;;;;;5.50;3.60;;;;;;;26.02;39.43;98998.63;5113406;28;20102;-80
2022/05/12 05:41:01;;;;;;;7.03;4.05;;;;;;;26.91;38.77;98995.69;5113850;28;20042;-80
2022/05/12 05:43:28;;;;;;;5.90;3.60;;;;;;;28.84;35.15;98995.66;5113571;28;20537;-80
2022/05/12 05:45:54;;;;;;;6.85;3.83;;;;;;;31.48;29.60;99015.47;5113677;28;20034;-87
2022/05/12 05:48:20;;;;;;;7.30;3.40;;;;;;;32.74;27.90;99016.59;5112029;28;20055;-89
2022/05/12 05:53:35;;;;;;;5.55;3.40;;;;;;;31.29;27.98;99028.03;5113491;28;20384;-89
2022/05/12 05:56:02;;;;;;;5.93;2.97;;;;;;;30.95;28.28;99032.84;5113520;28;20055;-88
2022/05/12 05:58:28;;;;;;;6.25;3.25;;;;;;;30.78;28.36;99026.34;5113300;28;20046;-88
2022/05/12 06:00:54;;;;;;;6.05;3.42;;;;;;;31.45;27.35;99038.25;5113393;28;20024;-88
2022/05/12 06:03:20;;;;;;;6.53;3.42;;;;;;;33.43;25.10;99041.28;5111688;28;20023;-89
2022/05/12 06:05:46;;;;;;;6.25;3.40;;;;;;;34.61;23.53;99058.13;5111828;28;20058;-88
2022/05/12 06:08:14;;;;;;;5.68;3.35;;;;;;;33.98;23.71;99055.25;5113353;28;20067;-88
2022/05/12 06:10:41;;;;;;;8.13;2.67;;;;;;;33.29;24.42;99059.56;5111865;28;20434;-88
2022/05/12 06:13:08;;;;;;;9.23;3.30;;;;;;;32.96;24.91;99066.31;5111921;28;20496;-88
2022/05/12 06:15:34;;;;;;;4.80;2.70;;;;;;;32.86;25.24;99055.22;5111630;28;20069;-88
2022/05/12 06:18:00;;;;;;;5.38;3.10;;;;;;;33.45;24.36;99072.38;5090073;28;20036;-88
2022/05/12 06:20:25;;;;;;;6.35;2.65;;;;;;;35.90;22.24;99051.81;5072886;28;20036;-89
2022/05/12 06:22:51;;;;;;;7.65;2.72;;;;;;;38.04;19.82;99059.22;5090056;28;20032;-88
2022/05/12 06:25:17;;;;;;;7.95;3.15;;;;;;;38.92;18.47;99088.38;5089813;28;20036;-88
2022/05/12 06:27:44;;;;;;;8.25;3.08;;;;;;;38.58;18.37;99083.38;5090137;28;20032;-89
2022/05/12 06:30:12;;;;;;;17.05;3.45;;;;;;;37.43;18.54;99073.28;5089995;28;20043;-88
2022/05/12 06:32:39;;;;;;;12.45;3.25;;;;;;;35.91;19.68;99053.47;5072743;28;20442;-88
2022/05/12 06:35:06;;;;;;;7.85;3.50;;;;;;;36.76;19.91;99081.06;5072770;28;20469;-87
2022/05/12 06:37:32;;;;;;;21.98;3.78;;;;;;;38.93;18.52;99098.97;5072747;28;20059;-85
2022/05/12 06:39:57;;;;;;;5.53;2.80;;;;;;;40.75;16.57;99098.06;5072962;28;20605;-86
2022/05/12 06:42:23;;;;;;;10.45;2.92;;;;;;;42.32;15.11;99094.19;5072661;28;20086;-87
2022/05/12 06:44:48;;;;;;;12.48;3.15;;;;;;;43.96;14.18;99087.69;5072625;28;20028;-87
2022/05/12 06:47:14;;;;;;;11.07;3.58;;;;;;;45.13;12.94;99100.75;5072615;28;20429;-86
2022/05/12 06:49:41;;;;;;;6.13;3.03;;;;;;;45.85;12.56;99099.75;5089563;28;20441;-86
2022/05/12 06:52:08;;;;;;;9.20;3.13;;;;;;;46.67;11.90;99114.69;5072702;28;20035;-87
2022/05/12 06:54:34;;;;;;;10.23;3.05;;;;;;;46.50;11.45;99114.66;5072669;28;20399;-86
2022/05/12 06:57:01;;;;;;;9.55;3.03;;;;;;;46.28;11.63;99108.16;5090858;28;20530;-87
2022/05/12 06:59:26;;;;;;;7.35;2.80;;;;;;;45.60;12.41;99126.00;5091872;28;20077;-87
2022/05/12 07:01:52;;;;;;;7.35;3.05;;;;;;;46.01;12.19;99144.16;5090640;28;20036;-87
2022/05/12 07:04:18;;;;;;;20.38;3.60;;;;;;;45.74;12.70;99156.97;5092193;28;20020;-86
2022/05/12 07:06:44;;;;;;;6.07;3.47;;;;;;;41.81;15.56;99158.47;5092085;28;20105;-86
2022/05/12 07:09:09;;;;;;;6.10;3.60;;;;;;;42.33;15.96;99159.56;5092054;28;20477;-86
2022/05/12 07:11:35;;;;;;;9.13;4.07;;;;;;;42.55;15.82;99185.56;5090527;28;20032;-86
2022/05/12 07:14:00;;;;;;;13.30;4.88;;;;;;;41.86;16.26;99184.97;5106199;28;20062;-86
2022/05/12 07:16:25;;;;;;;7.07;4.85;;;;;;;43.17;15.44;99194.63;5111243;28;20070;-86
2022/05/12 07:18:51;;;;;;;8.75;3.58;;;;;;;44.31;14.72;99209.69;5112048;28;20027;-86
2022/05/12 07:26:47;;;;;;;8.52;4.65;;;;;;;42.14;16.18;99210.66;5112108;28;20096;-86
2022/05/12 07:29:19;;;;;;;4.90;3.63;;;;;;;41.52;16.81;99209.59;5089085;28;20039;-86
2022/05/12 07:31:45;;;;;;;5.20;3.53;;;;;;;43.61;15.84;99217.25;5071993;28;20658;-86
2022/05/12 07:34:12;;;;;;;8.15;3.88;;;;;;;44.83;14.46;99236.13;5072232;28;20033;-86
2022/05/12 07:36:41;;;;;;;10.75;4.13;;;;;;;45.23;14.22;99227.00;5075304;28;20495;-86
2022/05/12 07:39:07;;;;;;;6.80;3.78;;;;;;;46.40;13.45;99236.97;5076272;28;20032;-86
2022/05/12 07:41:33;;;;;;;7.15;3.63;;;;;;;47.82;12.50;99230.94;5092832;28;20094;-86
2022/05/12 07:43:59;;;;;;;6.28;3.38;;;;;;;46.76;12.60;99245.03;5093165;28;20509;-86
2022/05/12 07:46:27;;;;;;;5.63;3.63;;;;;;;45.56;13.64;99235.03;5075800;28;20036;-87
2022/05/12 07:48:53;;;;;;;4.50;3.58;;;;;;;46.91;13.14;99252.03;5075897;28;20070;-86
2022/05/12 07:51:20;;;;;;;8.90;3.67;;;;;;;47.43;12.72;99254.84;5093196;28;20488;-86
2022/05/12 07:53:47;;;;;;;5.95;3.67;;;;;;;46.95;12.72;99255.78;5092853;28;20106;-87
2022/05/12 07:56:18;;;;;;;6.32;3.35;;;;;;;46.25;13.06;99245.66;5075878;28;20032;-86
2022/05/12 07:58:44;;;;;;;7.43;3.50;;;;;;;46.28;13.47;99258.81;5092176;28;20024;-87
2022/05/12 08:01:11;;;;;;;6.18;4.03;;;;;;;45.92;13.39;99245.13;5109457;28;20591;-86
2022/05/12 08:03:38;;;;;;;6.00;3.47;;;;;;;42.89;15.13;99259.38;5113656;28;20418;-86
2022/05/12 08:06:03;;;;;;;7.50;3.75;;;;;;;38.64;18.64;99247.50;5114991;28;20020;-86
2022/05/12 08:08:29;;;;;;;6.80;3.55;;;;;;;35.68;22.06;99260.38;5112910;28;20023;-86
2022/05/12 08:10:55;;;;;;;6.80;3.90;;;;;;;36.63;21.70;99236.94;5112988;28;20553;-86
2022/05/12 08:13:21;;;;;;;9.02;4.13;;;;;;;35.73;21.79;99271.31;5114170;28;20081;-85
2022/05/12 08:15:49;;;;;;;7.45;3.42;;;;;;;33.64;24.73;99262.16;5111136;28;20467;-86
2022/05/12 08:18:21;;;;;;;6.10;3.35;;;;;;;32.83;25.79;99274.19;5114111;28;20627;-88
2022/05/12 08:20:47;;;;;;;4.93;3.58;;;;;;;33.47;25.38;99270.09;5113819;28;20016;-87
2022/05/12 08:23:13;;;;;;;5.55;3.33;;;;;;;33.66;25.49;99281.63;5113792;28;20032;-88
2022/05/12 08:25:40;;;;;;;6.20;3.60;;;;;;;32.88;26.03;99295.06;5111990;28;20428;-87
2022/05/12 08:28:05;;;;;;;6.10;3.67;;;;;;;31.38;28.00;99273.47;5113514;28;20040;-86
2022/05/12 08:30:31;;;;;;;5.68;3.08;;;;;;;30.33;29.74;99290.50;5091718;28;20608;-87
2022/05/12 08:32:57;;;;;;;9.13;3.60;;;;;;;29.70;31.21;99275.78;5075143;28;20135;-87
2022/05/12 08:35:24;;;;;;;7.07;3.47;;;;;;;29.51;31.70;99291.63;5091858;28;20042;-87
2022/05/12 08:37:49;;;;;;;6.35;3.55;;;;;;;29.17;32.28;99291.72;5092132;28;20035;-87
2022/05/12 08:40:33;;;;;;;6.38;3.08;;;;;;;28.88;32.80;99311.56;5074864;28;20381;-87
2022/05/12 08:43:21;;;;;;;7.07;2.70;;;;;;;28.80;32.90;99308.00;5088296;28;20098;-87
2022/05/12 08:45:47;;;;;;;5.93;3.00;;;;;;;28.62;33.17;99315.72;5071944;28;20451;-86
2022/05/12 08:48:15;;;;;;;5.40;3.40;;;;;;;28.35;33.34;99307.47;5071737;28;20055;-86
2022/05/12 08:50:41;;;;;;;6.57;3.03;;;;;;;28.18;33.86;99308.75;5071711;28;20040;-86
2022/05/12 08:53:14;;;;;;;6.00;2.80;;;;;;;28.30;33.31;99320.59;5091628;28;20581;-85
2022/05/12 08:55:53;;;;;;;7.57;2.80;;;;;;;28.28;32.74;99317.31;5074307;28;20039;-87
2022/05/12 08:58:28;;;;;;;10.52;2.55;;;;;;;28.44;31.75;99334.13;5091523;28;20070;-85
2022/05/12 09:01:06;;;;;;;11.00;3.10;;;;;;;27.97;32.67;99340.91;5076685;28;20036;-85
2022/05/12 09:03:58;;;;;;;11.63;3.33;;;;;;;27.38;32.89;99351.75;5093710;28;20531;-86
2022/05/12 09:06:32;;;;;;;10.73;3.15;;;;;;;27.06;33.02;99346.59;5092716;28;20369;-87
2022/05/12 09:09:09;;;;;;;13.65;2.60;;;;;;;26.96;32.62;99355.91;5094016;28;20046;-86
2022/05/12 09:11:45;;;;;;;8.68;2.20;;;;;;;26.87;32.07;99366.66;5092620;28;20028;-88
2022/05/12 09:14:34;;;;;;;10.18;2.10;;;;;;;26.82;31.94;99365.56;5093922;28;20032;-86
2022/05/12 09:17:00;;;;;;;9.88;2.50;;;;;;;26.67;32.20;99360.19;5093985;28;20024;-87
2022/05/12 09:19:27;;;;;;;9.73;2.40;;;;;;;26.78;32.40;99357.09;5109217;28;20392;-88
2022/05/12 09:21:54;;;;;;;6.57;2.30;;;;;;;26.96;32.17;99375.44;5109575;28;20110;-87
2022/05/12 09:24:20;;;;;;;10.73;2.30;;;;;;;27.11;32.00;99380.81;5109504;28;20031;-87
2022/05/12 09:27:10;;;;;;;13.65;2.63;;;;;;;27.41;32.17;99389.66;5109130;28;20027;-87
2022/05/12 09:29:56;;;;;;;10.77;2.22;;;;;;;27.47;30.50;99390.75;5092986;28;20098;-87
2022/05/12 09:32:32;;;;;;;16.58;2.90;;;;;;;27.15;30.45;99384.78;5108033;28;20028;-87
2022/05/12 09:35:19;;;;;;;13.15;2.63;;;;;;;26.92;30.09;99392.84;5102443;28;20027;-87
2022/05/12 09:37:45;;;;;;;14.55;2.22;;;;;;;26.62;29.81;99403.47;5113687;28;20038;-88
2022/05/12 09:40:19;;;;;;;9.90;2.50;;;;;;;26.29;30.68;99407.41;5112344;28;20575;-87
2022/05/12 09:42:48;;;;;;;12.25;2.13;;;;;;;26.00;30.57;99402.78;5112278;28;20080;-87
2022/05/12 09:45:16;;;;;;;15.30;2.45;;;;;;;25.87;31.36;99427.34;5113738;28;20473;-87
2022/05/12 09:47:42;;;;;;;9.88;2.50;;;;;;;25.90;31.07;99431.53;5111944;28;20094;-87
2022/05/12 09:50:16;;;;;;;9.95;2.88;;;;;;;25.74;31.45;99432.41;5112335;28;20081;-86
2022/05/12 09:52:46;;;;;;;14.65;1.83;;;;;;;25.65;32.27;99428.94;5111814;28;20629;-86
2022/05/12 09:55:23;;;;;;;21.70;3.22;;;;;;;25.54;31.38;99448.84;5113551;28;20129;-87
2022/05/12 09:57:52;;;;;;;10.43;2.35;;;;;;;25.20;32.04;99426.94;5111775;28;20028;-87
2022/05/12 10:00:38;;;;;;;10.60;2.30;;;;;;;25.32;31.81;99437.06;5113420;28;20020;-86
2022/05/12 10:09:18;;;;;;;32.75;3.03;;;;;;;26.06;30.66;99420.75;5112998;28;20445;-86
2022/05/12 10:12:11;;;;;;;12.65;2.25;;;;;;;25.87;30.76;99446.91;5111574;28;20574;-86
2022/05/12 10:14:49;;;;;;;12.15;2.10;;;;;;;25.53;31.47;99452.50;5112970;28;20034;-86
2022/05/12 10:17:24;;;;;;;6.32;1.75;;;;;;;25.39;31.26;99454.03;5111835;28;20028;-85
2022/05/12 10:19:50;;;;;;;14.38;1.98;;;;;;;25.18;31.39;99453.78;5112703;28;20040;-86
2022/05/12 10:22:22;;;;;;;23.83;3.10;;;;;;;24.99;31.54;99448.78;5111872;28;20053;-86
2022/05/12 10:25:17;;;;;;;11.45;2.08;;;;;;;24.88;31.79;99450.78;5112926;28;20028;-87
2022/05/12 10:28:06;;;;;;;11.38;1.98;;;;;;;24.85;31.41;99450.28;5112739;28;20407;-86
2022/05/12 10:31:06;;;;;;;13.90;2.08;;;;;;;24.86;30.56;99462.59;5112603;28;20036;-87
2022/05/12 10:33:52;;;;;;;19.20;2.35;;;;;;;24.79;30.11;99478.44;5112896;28;20047;-87
2022/05/12 10:36:57;;;;;;;20.90;3.42;;;;;;;24.63;27.80;99468.63;5111195;28;20114;-85
2022/05/12 10:39:37;;;;;;;12.95;2.25;;;;;;;24.47;27.70;99460.63;5111603;28;20123;-87
2022/05/12 10:42:21;;;;;;;9.48;1.88;;;;;;;24.55;27.93;99481.09;5113066;28;20059;-87
2022/05/12 10:45:24;;;;;;;23.05;2.72;;;;;;;24.50;27.17;99478.94;5112288;28;20102;-86
2022/05/12 10:48:20;;;;;;;20.02;2.67;;;;;;;24.47;27.46;99491.72;5069127;28;20060;-86
2022/05/12 10:51:02;;;;;;;20.90;2.67;;;;;;;24.30;25.85;99493.50;5052473;28;20074;-85
2022/05/12 10:54:06;;;;;;;17.15;2.45;;;;;;;24.24;24.60;99491.50;5069546;28;20037;-86
2022/05/12 10:56:53;;;;;;;11.57;1.92;;;;;;;24.06;24.23;99502.25;5052309;28;20040;-86
2022/05/12 10:59:37;;;;;;;12.15;2.33;;;;;;;24.14;23.49;99495.16;5069422;28;20048;-86
2022/05/12 11:02:16;;;;;;;15.80;2.70;;;;;;;24.13;22.53;99484.66;5069358;28;20058;-86
2022/05/12 11:04:50;;;;;;;14.48;2.42;;;;;;;24.08;22.58;99503.75;5069037;28;20500;-86
2022/05/12 11:07:36;;;;;;;6.35;1.55;;;;;;;24.10;22.01;99501.78;5069607;28;20111;-85
2022/05/12 11:10:18;;;;;;;10.20;1.90;;;;;;;24.27;22.19;99504.47;5068560;28;20044;-86
2022/05/12 11:12:48;;;;;;;9.27;1.92;;;;;;;24.22;21.81;99520.94;5069050;28;20024;-86
2022/05/12 11:15:19;;;;;;;11.32;1.83;;;;;;;24.23;22.30;99500.47;5052400;28;20028;-86
2022/05/12 11:18:05;;;;;;;11.35;2.10;;;;;;;24.31;22.35;99506.66;5069059;28;20040;-86
2022/05/12 11:20:38;;;;;;;6.18;1.58;;;;;;;24.33;22.40;99523.28;5069150;28;20127;-86
2022/05/12 11:23:22;;;;;;;6.13;1.45;;;;;;;24.42;22.62;99532.16;5072216;28;20373;-86
2022/05/12 11:25:56;;;;;;;14.70;1.88;;;;;;;24.43;21.56;99525.84;5110686;28;20028;-85
2022/05/12 11:31:21;;;;;;;6.68;1.90;;;;;;;24.56;22.26;99514.69;5112406;28;20038;-86
2022/05/12 11:33:54;;;;;;;10.43;1.60;;;;;;;24.63;21.80;99516.56;5111940;28;20067;-86
2022/05/12 11:36:20;;;;;;;14.15;2.00;;;;;;;24.62;22.80;99514.06;5090334;28;20074;-86
2022/05/12 11:38:52;;;;;;;11.02;1.80;;;;;;;24.64;25.67;99523.53;5090183;28;20035;-84
2022/05/12 11:41:20;;;;;;;10.95;2.20;;;;;;;24.67;26.67;99530.38;5090499;28;20028;-85
2022/05/12 11:46:41;;;;;;;9.20;2.45;;;;;;;24.48;26.97;99526.19;5091814;28;20523;-86
2022/05/12 11:49:25;;;;;;;8.98;1.88;;;;;;;24.41;27.22;99533.16;5091349;28;20064;-86
2022/05/12 11:52:00;;;;;;;4.95;1.80;;;;;;;24.45;27.80;99534.50;5091443;28;20028;-85
2022/05/12 11:54:36;;;;;;;5.57;1.50;;;;;;;24.50;27.72;99526.84;5091821;28;20047;-86
2022/05/12 11:57:04;;;;;;;4.78;1.77;;;;;;;24.45;27.44;99525.69;5091331;28;20032;-85
2022/05/12 11:59:44;;;;;;;7.93;2.00;;;;;;;24.37;27.79;99531.78;5091416;28;20054;-85
2022/05/12 12:02:40;;;;;;;7.95;1.95;;;;;;;24.16;27.11;99526.91;5091821;28;20020;-85
2022/05/12 12:05:09;;;;;;;5.85;1.83;;;;;;;24.12;27.82;99544.19;5048735;28;20490;-85